createdAt,value
2022-11-25T00:01:28.046Z,13.77
2022-11-25T00:03:56.318Z,13.30
2022-11-25T00:06:30.840Z,11.53
2022-11-25T00:09:08.402Z,19.93
2022-11-25T00:11:36.664Z,15.47
2022-11-25T00:14:03.780Z,16.20
2022-11-25T00:16:30.897Z,17.43
2022-11-25T00:18:58.265Z,11.00
2022-11-25T00:21:26.905Z,12.40
2022-11-25T00:23:54.667Z,9.87
2022-11-25T00:26:22.303Z,12.77
2022-11-25T00:28:49.682Z,9.03
2022-11-25T00:31:24.596Z,13.40
2022-11-25T00:33:52.223Z,10.20
2022-11-25T00:36:27.206Z,13.30
2022-11-25T00:38:56.252Z,15.23
2022-11-25T00:41:42.748Z,10.17
2022-11-25T00:44:33.083Z,15.07
2022-11-25T00:47:00.409Z,11.30
2022-11-25T00:49:27.563Z,9.13
2022-11-25T00:51:54.790Z,7.40
2022-11-25T00:54:21.819Z,13.93
2022-11-25T00:56:48.874Z,8.10
2022-11-25T00:59:15.972Z,13.70
2022-11-25T01:01:43.037Z,11.07
2022-11-25T01:04:10.118Z,8.13
2022-11-25T01:06:38.107Z,7.17
2022-11-25T01:09:05.787Z,14.13
2022-11-25T01:11:32.868Z,10.50
2022-11-25T01:14:01.573Z,12.33
2022-11-25T01:16:29.521Z,11.83
2022-11-25T01:18:56.665Z,13.00
2022-11-25T01:21:25.031Z,11.77
2022-11-25T01:23:52.434Z,12.73
2022-11-25T01:26:21.575Z,10.93
2022-11-25T01:28:48.802Z,7.87
2022-11-25T01:31:21.015Z,13.10
2022-11-25T01:33:48.947Z,12.23
2022-11-25T01:36:16.733Z,11.47
2022-11-25T01:38:44.097Z,6.70
2022-11-25T01:41:12.646Z,5.97
2022-11-25T01:43:39.959Z,13.87
2022-11-25T01:46:21.711Z,13.17
2022-11-25T01:49:00.061Z,11.03
2022-11-25T01:51:29.004Z,10.30
2022-11-25T01:53:58.594Z,7.17
2022-11-25T01:56:26.699Z,9.87
2022-11-25T01:58:54.236Z,10.60
2022-11-25T02:01:21.797Z,6.97
2022-11-25T02:03:50.872Z,8.57
2022-11-25T02:06:21.435Z,14.57
2022-11-25T02:08:50.401Z,12.97
2022-11-25T02:11:18.026Z,7.77
2022-11-25T02:13:46.973Z,16.97
2022-11-25T02:16:14.086Z,6.43
2022-11-25T02:18:41.400Z,12.30
2022-11-25T02:21:08.589Z,11.23
2022-11-25T02:23:40.063Z,10.40
2022-11-25T02:26:07.102Z,11.27
2022-11-25T02:28:34.379Z,15.33
2022-11-25T02:31:01.458Z,14.53
2022-11-25T02:33:28.750Z,7.67
2022-11-25T02:35:57.291Z,8.00
2022-11-25T02:38:24.446Z,12.63
2022-11-25T02:41:09.733Z,6.77
2022-11-25T02:43:36.808Z,9.10
2022-11-25T02:46:08.244Z,10.27
2022-11-25T02:51:25.318Z,8.80
2022-11-25T02:53:52.425Z,7.13
2022-11-25T02:56:20.433Z,9.67
2022-11-25T02:58:47.465Z,11.87
2022-11-25T03:01:14.561Z,8.77
2022-11-25T03:03:41.844Z,16.50
2022-11-25T03:06:09.318Z,8.07
2022-11-25T03:08:37.977Z,11.97
2022-11-25T03:11:05.290Z,9.63
2022-11-25T03:13:32.345Z,7.87
2022-11-25T03:15:59.382Z,7.47
2022-11-25T03:18:26.630Z,9.53
2022-11-25T03:20:56.940Z,15.37
2022-11-25T03:23:24.010Z,13.53
2022-11-25T03:25:51.102Z,18.57
2022-11-25T03:28:18.128Z,10.40
2022-11-25T03:30:45.159Z,10.17
2022-11-25T03:33:12.190Z,13.27
2022-11-25T03:35:39.264Z,11.20
2022-11-25T03:38:06.300Z,13.00
2022-11-25T03:40:33.373Z,12.17
2022-11-25T03:43:00.494Z,12.33
2022-11-25T03:45:27.586Z,13.47
2022-11-25T03:47:54.650Z,6.97
2022-11-25T03:50:21.852Z,9.90
2022-11-25T03:52:49.032Z,6.87
2022-11-25T03:55:16.730Z,12.47
2022-11-25T03:57:43.824Z,8.77
2022-11-25T04:00:11.385Z,8.20
2022-11-25T04:02:38.524Z,10.27
2022-11-25T04:05:05.847Z,11.60
2022-11-25T04:07:33.121Z,10.97
2022-11-25T04:10:00.306Z,10.83
2022-11-25T04:12:46.309Z,9.93
2022-11-25T04:15:14.191Z,11.87
2022-11-25T04:17:41.294Z,14.83
2022-11-25T04:20:08.566Z,12.10
2022-11-25T04:22:35.704Z,9.27
2022-11-25T04:25:02.848Z,8.33
2022-11-25T04:27:29.901Z,11.53
2022-11-25T04:29:56.942Z,10.77
2022-11-25T04:32:24.107Z,15.10
2022-11-25T04:34:51.233Z,6.30
2022-11-25T04:37:18.281Z,9.83
2022-11-25T04:39:45.318Z,13.57
2022-11-25T04:42:30.908Z,8.50
2022-11-25T04:45:21.553Z,15.30
2022-11-25T04:47:46.082Z,14.73
2022-11-25T04:50:15.161Z,13.67
2022-11-25T04:52:42.471Z,10.63
2022-11-25T04:55:09.782Z,9.40
2022-11-25T04:57:36.837Z,14.97
2022-11-25T05:00:05.142Z,9.23
2022-11-25T05:02:32.208Z,5.40
2022-11-25T05:04:59.339Z,10.20
2022-11-25T05:07:27.424Z,7.23
2022-11-25T05:09:54.679Z,7.90
2022-11-25T05:12:24.148Z,11.33
2022-11-25T05:14:51.221Z,11.50
2022-11-25T05:17:19.643Z,12.83
2022-11-25T05:19:47.094Z,7.23
2022-11-25T05:22:15.033Z,11.17
2022-11-25T05:24:42.063Z,10.87
2022-11-25T05:27:09.217Z,14.97
2022-11-25T05:29:36.406Z,9.97
2022-11-25T05:32:03.841Z,11.93
2022-11-25T05:34:30.925Z,6.70
2022-11-25T05:36:58.034Z,14.13
2022-11-25T05:39:25.105Z,11.60
2022-11-25T05:41:52.171Z,9.87
2022-11-25T05:44:22.943Z,6.27
2022-11-25T05:46:50.682Z,15.37
2022-11-25T05:49:18.586Z,13.47
2022-11-25T05:51:46.150Z,8.23
2022-11-25T05:54:13.194Z,7.50
2022-11-25T05:56:40.534Z,15.33
2022-11-25T05:59:08.150Z,11.87
2022-11-25T06:01:35.205Z,11.13
2022-11-25T06:04:03.086Z,11.10
2022-11-25T06:06:30.588Z,9.73
2022-11-25T06:08:57.801Z,13.53
2022-11-25T06:11:25.685Z,13.87
2022-11-25T06:13:52.933Z,6.83
2022-11-25T06:16:21.553Z,12.80
2022-11-25T06:18:48.674Z,14.13
2022-11-25T06:21:15.984Z,12.13
2022-11-25T06:23:45.423Z,16.97
2022-11-25T06:26:20.094Z,18.07
2022-11-25T06:28:47.606Z,15.43
2022-11-25T06:31:16.236Z,8.10
2022-11-25T06:33:43.737Z,18.47
2022-11-25T06:36:16.948Z,11.47
2022-11-25T06:38:48.035Z,12.73
2022-11-25T06:41:15.137Z,12.37
2022-11-25T06:43:42.317Z,17.17
2022-11-25T06:46:10.461Z,12.47
2022-11-25T06:48:37.980Z,17.97
2022-11-25T06:51:07.125Z,15.90
2022-11-25T06:53:37.917Z,6.93
2022-11-25T06:56:04.960Z,13.00
2022-11-25T06:58:36.402Z,18.77
2022-11-25T07:01:08.573Z,10.63
2022-11-25T07:03:36.072Z,12.20
2022-11-25T07:06:03.687Z,15.73
2022-11-25T07:08:34.150Z,9.80
2022-11-25T07:11:21.193Z,11.57
2022-11-25T07:13:49.049Z,12.13
2022-11-25T07:16:16.171Z,10.33
2022-11-25T07:18:43.347Z,9.90
2022-11-25T07:21:12.052Z,12.47
2022-11-25T07:23:39.345Z,9.23
2022-11-25T07:26:07.618Z,14.33
2022-11-25T07:28:34.960Z,14.97
2022-11-25T07:31:32.394Z,14.03
2022-11-25T07:34:14.281Z,11.60
2022-11-25T07:36:42.170Z,11.27
2022-11-25T07:39:11.628Z,12.80
2022-11-25T07:41:38.740Z,17.30
2022-11-25T07:44:07.629Z,37.53
2022-11-25T07:46:36.004Z,30.20
2022-11-25T07:49:06.081Z,20.60
2022-11-25T07:51:34.816Z,16.20
2022-11-25T07:54:02.974Z,14.33
2022-11-25T07:56:30.348Z,14.20
2022-11-25T07:58:58.171Z,13.10
2022-11-25T08:01:25.580Z,19.43
2022-11-25T08:03:52.901Z,16.93
2022-11-25T08:06:22.504Z,18.13
2022-11-25T08:08:50.125Z,14.23
2022-11-25T08:11:18.446Z,13.77
2022-11-25T08:13:46.062Z,12.37
2022-11-25T08:16:14.069Z,16.50
2022-11-25T08:18:41.655Z,17.13
2022-11-25T08:21:10.505Z,16.23
2022-11-25T08:23:38.512Z,14.77
2022-11-25T08:26:06.873Z,13.17
2022-11-25T08:28:33.943Z,12.97
2022-11-25T08:31:15.154Z,8.67
2022-11-25T08:33:42.784Z,17.30
2022-11-25T08:36:10.153Z,10.67
2022-11-25T08:38:37.266Z,9.20
2022-11-25T08:41:04.383Z,14.50
2022-11-25T08:43:31.488Z,11.07
2022-11-25T08:45:59.804Z,9.93
2022-11-25T08:48:26.887Z,13.93
2022-11-25T08:50:55.116Z,10.43
2022-11-25T08:53:22.841Z,8.77
2022-11-25T08:55:49.898Z,10.83
2022-11-25T08:58:17.050Z,15.07
2022-11-25T09:00:45.006Z,12.87
2022-11-25T09:03:12.198Z,15.53
2022-11-25T09:05:43.787Z,15.60
2022-11-25T09:08:11.460Z,12.13
2022-11-25T09:10:39.609Z,8.23
2022-11-25T09:13:06.920Z,10.10
2022-11-25T09:15:36.785Z,15.33
2022-11-25T09:18:08.251Z,13.13
2022-11-25T09:20:35.847Z,16.30
2022-11-25T09:23:03.336Z,7.07
2022-11-25T09:25:30.499Z,9.13
2022-11-25T09:27:57.667Z,11.70
2022-11-25T09:38:46.154Z,13.10
2022-11-25T09:41:39.242Z,8.53
2022-11-25T09:44:34.152Z,14.03
2022-11-25T09:47:09.974Z,13.27
2022-11-25T09:49:40.086Z,8.43
2022-11-25T09:52:27.544Z,10.80
2022-11-25T09:54:58.496Z,10.40
2022-11-25T09:57:27.051Z,9.80
2022-11-25T10:00:23.196Z,8.60
2022-11-25T10:02:53.096Z,10.50
2022-11-25T10:05:29.341Z,10.43
2022-11-25T10:07:58.458Z,12.37
2022-11-25T10:10:30.995Z,12.13
2022-11-25T10:12:58.806Z,16.23
2022-11-25T10:15:26.196Z,11.93
2022-11-25T10:17:54.725Z,13.43
2022-11-25T10:20:21.834Z,7.93
2022-11-25T10:22:50.658Z,11.90
2022-11-25T10:25:18.286Z,11.67
2022-11-25T10:27:48.793Z,9.67
2022-11-25T10:30:21.346Z,12.37
2022-11-25T10:33:02.557Z,17.47
2022-11-25T10:35:36.537Z,11.60
2022-11-25T10:38:04.747Z,10.13
2022-11-25T10:40:31.905Z,13.43
2022-11-25T10:42:59.599Z,13.33
2022-11-25T10:45:31.899Z,15.07
2022-11-25T10:48:08.251Z,10.70
2022-11-25T10:50:48.141Z,12.43
2022-11-25T10:53:18.105Z,8.60
2022-11-25T10:56:05.435Z,9.57
2022-11-25T10:58:37.230Z,15.10
2022-11-25T11:01:06.172Z,10.03
2022-11-25T11:03:33.245Z,8.37
2022-11-25T11:06:00.350Z,10.30
2022-11-25T11:08:40.822Z,8.17
2022-11-25T11:11:15.824Z,14.80
2022-11-25T11:13:43.214Z,8.77
2022-11-25T11:16:24.430Z,10.03
2022-11-25T11:18:51.630Z,11.53
2022-11-25T11:21:37.934Z,9.87
2022-11-25T11:24:23.620Z,6.87
2022-11-25T11:27:02.281Z,6.70
2022-11-25T11:29:29.413Z,6.63
2022-11-25T11:32:01.304Z,11.93
2022-11-25T11:34:41.054Z,8.07
2022-11-25T11:37:26.541Z,7.80
2022-11-25T11:40:02.834Z,11.60
2022-11-25T11:42:48.777Z,9.40
2022-11-25T11:45:25.059Z,9.93
2022-11-25T11:47:57.959Z,9.50
2022-11-25T11:50:32.432Z,5.30
2022-11-25T11:52:59.547Z,6.40
2022-11-25T11:55:34.174Z,4.90
2022-11-25T11:58:20.022Z,8.13
2022-11-25T12:01:10.356Z,8.43
2022-11-25T12:03:41.141Z,9.03
2022-11-25T12:06:10.787Z,7.70
2022-11-25T12:08:50.258Z,7.47
2022-11-25T12:11:37.589Z,8.63
2022-11-25T12:14:12.410Z,7.47
2022-11-25T12:16:49.186Z,7.40
2022-11-25T12:19:21.753Z,11.03
2022-11-25T12:21:51.569Z,9.47
2022-11-25T12:24:32.011Z,7.60
2022-11-25T12:27:04.979Z,7.73
2022-11-25T12:29:32.087Z,16.37
2022-11-25T12:32:28.252Z,8.90
2022-11-25T12:35:02.518Z,6.70
2022-11-25T12:37:54.928Z,11.07
2022-11-25T12:40:26.430Z,7.50
2022-11-25T12:42:56.156Z,16.83
2022-11-25T12:45:24.187Z,7.37
2022-11-25T12:47:51.552Z,8.73
2022-11-25T12:50:25.323Z,12.43
2022-11-25T12:53:03.039Z,6.23
2022-11-25T12:55:31.544Z,13.00
2022-11-25T12:58:19.641Z,12.03
2022-11-25T13:01:07.090Z,8.93
2022-11-25T13:03:37.296Z,7.20
2022-11-25T13:06:07.114Z,7.53
2022-11-25T13:08:56.305Z,8.40
2022-11-25T13:11:36.034Z,8.73
2022-11-25T13:14:25.978Z,8.93
2022-11-25T13:16:54.185Z,9.73
2022-11-25T13:19:21.742Z,8.87
2022-11-25T13:22:06.340Z,9.03
2022-11-25T13:24:35.340Z,8.73
2022-11-25T13:27:02.658Z,14.07
2022-11-25T13:29:29.746Z,10.83
2022-11-25T13:32:01.195Z,10.43
2022-11-25T13:34:28.337Z,8.30
2022-11-25T13:36:59.315Z,9.83
2022-11-25T13:39:30.862Z,9.57
2022-11-25T13:42:24.151Z,10.50
2022-11-25T13:44:55.741Z,7.47
2022-11-25T13:47:42.819Z,9.50
2022-11-25T13:50:21.691Z,11.70
2022-11-25T13:53:03.722Z,8.67
2022-11-25T13:55:39.216Z,9.33
2022-11-25T13:58:19.067Z,5.83
2022-11-25T14:00:58.009Z,6.70
2022-11-25T14:03:25.204Z,12.23
2022-11-25T14:06:12.303Z,11.90
2022-11-25T14:08:46.629Z,10.57
2022-11-25T14:11:30.997Z,12.27
2022-11-25T14:13:58.108Z,12.67
2022-11-25T14:16:36.113Z,11.27
2022-11-25T14:19:51.651Z,9.53
2022-11-25T14:22:32.742Z,7.13
2022-11-25T14:25:10.463Z,6.93
2022-11-25T14:27:37.533Z,6.97
2022-11-25T14:30:06.062Z,12.10
2022-11-25T14:32:40.740Z,12.17
2022-11-25T14:35:13.916Z,8.40
2022-11-25T14:37:52.207Z,10.17
2022-11-25T14:40:21.970Z,8.07
2022-11-25T14:42:50.824Z,7.57
2022-11-25T14:45:24.053Z,8.73
2022-11-25T14:47:51.217Z,7.50
2022-11-25T14:50:34.390Z,6.60
2022-11-25T14:53:06.071Z,8.60
2022-11-25T14:55:33.201Z,14.20
2022-11-25T14:58:00.320Z,8.17
2022-11-25T15:00:27.622Z,7.13
2022-11-25T15:03:02.057Z,9.00
2022-11-25T15:05:36.468Z,6.90
2022-11-25T15:08:15.136Z,8.90
2022-11-25T15:10:45.004Z,7.50
2022-11-25T15:13:23.128Z,8.43
2022-11-25T15:15:50.591Z,14.97
2022-11-25T15:18:19.481Z,12.53
2022-11-25T15:21:00.267Z,11.17
2022-11-25T15:23:36.276Z,10.87
2022-11-25T15:26:04.158Z,14.00
2022-11-25T15:28:35.365Z,11.40
2022-11-25T15:31:03.162Z,13.37
2022-11-25T15:33:30.584Z,12.67
2022-11-25T15:35:57.702Z,7.73
2022-11-25T15:38:44.155Z,9.00
2022-11-25T15:41:20.582Z,9.90
2022-11-25T15:43:52.768Z,9.20
2022-11-25T15:46:20.108Z,10.97
2022-11-25T15:48:49.438Z,9.93
2022-11-25T15:51:49.167Z,11.20
2022-11-25T15:54:45.393Z,27.10
2022-11-25T15:57:29.056Z,25.60
2022-11-25T15:59:56.181Z,25.10
2022-11-25T16:02:37.546Z,21.93
2022-11-25T16:05:16.901Z,21.63
2022-11-25T16:07:50.278Z,14.80
2022-11-25T16:10:20.520Z,60.07
2022-11-25T16:13:06.356Z,54.67
2022-11-25T16:15:52.223Z,58.50
2022-11-25T16:18:39.339Z,25.53
2022-11-25T16:21:09.362Z,13.00
2022-11-25T16:23:37.909Z,18.37
2022-11-25T16:26:07.897Z,13.27
2022-11-25T16:28:35.137Z,17.93
2022-11-25T16:31:02.332Z,13.67
2022-11-25T16:33:29.417Z,15.03
2022-11-25T16:35:56.498Z,15.13
2022-11-25T16:38:23.598Z,13.67
2022-11-25T16:40:51.890Z,13.13
2022-11-25T16:43:27.262Z,14.33
2022-11-25T16:45:55.439Z,10.57
2022-11-25T16:48:23.662Z,12.53
2022-11-25T16:50:50.994Z,10.90
2022-11-25T16:53:18.987Z,15.00
2022-11-25T16:55:46.603Z,16.80
2022-11-25T16:58:21.335Z,17.43
2022-11-25T17:00:52.670Z,16.53
2022-11-25T17:03:20.022Z,15.63
2022-11-25T17:05:47.267Z,16.13
2022-11-25T17:08:14.564Z,11.83
2022-11-25T17:10:43.314Z,14.53
2022-11-25T17:13:21.737Z,14.70
2022-11-25T17:15:48.967Z,13.47
2022-11-25T17:18:18.329Z,12.80
2022-11-25T17:20:45.878Z,10.33
2022-11-25T17:23:14.425Z,14.27
2022-11-25T17:25:42.377Z,14.57
2022-11-25T17:28:14.459Z,12.17
2022-11-25T17:30:42.573Z,15.23
2022-11-25T17:33:17.096Z,17.23
2022-11-25T17:35:44.683Z,11.63
2022-11-25T17:38:18.223Z,20.13
2022-11-25T17:40:45.786Z,13.53
2022-11-25T17:43:17.603Z,15.37
2022-11-25T17:45:45.682Z,13.80
2022-11-25T17:48:17.787Z,13.87
2022-11-25T17:50:45.412Z,16.33
2022-11-25T17:53:12.165Z,16.10
2022-11-25T17:55:40.654Z,18.63
2022-11-25T17:58:10.258Z,14.37
2022-11-25T18:00:39.687Z,20.67
2022-11-25T18:03:11.876Z,12.07
2022-11-25T18:05:38.984Z,17.93
2022-11-25T18:08:06.267Z,13.70
2022-11-25T18:10:33.403Z,18.27
2022-11-25T18:13:00.675Z,14.70
2022-11-25T18:15:30.441Z,17.47
2022-11-25T18:18:25.121Z,18.83
2022-11-25T18:20:52.624Z,13.80
2022-11-25T18:23:19.769Z,14.83
2022-11-25T18:25:46.815Z,14.60
2022-11-25T18:28:23.341Z,11.73
2022-11-25T18:30:51.462Z,18.77
2022-11-25T18:33:20.536Z,17.67
2022-11-25T18:35:47.792Z,14.13
2022-11-25T18:38:14.940Z,17.30
2022-11-25T18:40:46.393Z,12.27
2022-11-25T18:43:18.608Z,10.83
2022-11-25T18:45:46.466Z,23.67
2022-11-25T18:48:16.687Z,17.00
2022-11-25T18:50:44.303Z,15.67
2022-11-25T18:53:11.709Z,17.23
2022-11-25T18:55:39.158Z,15.60
2022-11-25T18:58:22.050Z,14.97
2022-11-25T19:00:49.849Z,21.23
2022-11-25T19:03:21.179Z,22.67
2022-11-25T19:05:48.530Z,14.90
2022-11-25T19:08:15.655Z,15.37
2022-11-25T19:10:44.263Z,19.30
2022-11-25T19:13:30.514Z,12.60
2022-11-25T19:16:04.189Z,20.00
2022-11-25T19:18:30.945Z,19.60
2022-11-25T19:20:57.764Z,16.63
2022-11-25T19:23:25.941Z,22.20
2022-11-25T19:25:55.406Z,18.47
2022-11-25T19:28:22.491Z,19.63
2022-11-25T19:31:00.111Z,26.07
2022-11-25T19:33:36.718Z,13.43
2022-11-25T19:36:04.566Z,19.67
2022-11-25T19:38:32.829Z,17.27
2022-11-25T19:40:59.627Z,18.67
2022-11-25T19:43:28.986Z,17.00
2022-11-25T19:45:56.975Z,25.57
2022-11-25T19:48:28.331Z,19.33
2022-11-25T19:51:03.710Z,20.43
2022-11-25T19:53:34.139Z,18.73
2022-11-25T19:56:04.131Z,24.93
2022-11-25T19:58:31.205Z,17.57
2022-11-25T20:01:00.776Z,21.47
2022-11-25T20:03:31.067Z,17.30
2022-11-25T20:05:58.362Z,19.60
2022-11-25T20:08:27.580Z,16.67
2022-11-25T20:10:55.457Z,23.17
2022-11-25T20:13:23.404Z,26.93
2022-11-25T20:15:50.661Z,25.93
2022-11-25T20:18:21.194Z,20.90
2022-11-25T20:20:55.917Z,20.30
2022-11-25T20:23:26.662Z,26.37
2022-11-25T20:25:53.409Z,23.93
2022-11-25T20:28:23.373Z,23.83
2022-11-25T20:30:51.007Z,24.50
2022-11-25T20:33:23.823Z,22.40
2022-11-25T20:35:53.446Z,30.53
2022-11-25T20:38:23.373Z,22.27
2022-11-25T20:40:52.786Z,23.27
2022-11-25T20:43:26.308Z,21.33
2022-11-25T20:45:53.090Z,24.70
2022-11-25T20:48:19.878Z,19.53
2022-11-25T20:50:46.650Z,22.30
2022-11-25T20:53:17.424Z,28.17
2022-11-25T20:55:44.555Z,21.57
2022-11-25T20:58:22.622Z,22.07
2022-11-25T21:00:54.147Z,25.73
2022-11-25T21:03:24.289Z,31.57
2022-11-25T21:05:52.467Z,23.77
2022-11-25T21:08:25.505Z,22.33
2022-11-25T21:10:55.462Z,26.30
2022-11-25T21:13:28.209Z,24.97
2022-11-25T21:15:56.733Z,21.07
2022-11-25T21:18:23.976Z,29.83
2022-11-25T21:20:54.049Z,24.93
2022-11-25T21:23:42.982Z,32.07
2022-11-25T21:26:18.907Z,31.63
2022-11-25T21:28:47.703Z,28.77
2022-11-25T21:31:23.192Z,25.93
2022-11-25T21:33:51.037Z,26.30
2022-11-25T21:36:23.562Z,22.67
2022-11-25T21:38:56.205Z,24.17
2022-11-25T21:41:22.956Z,27.80
2022-11-25T21:43:50.323Z,28.17
2022-11-25T21:46:24.104Z,26.30
2022-11-25T21:48:50.853Z,25.93
2022-11-25T21:51:24.034Z,27.97
2022-11-25T21:53:52.174Z,25.73
2022-11-25T21:56:28.222Z,18.57
2022-11-25T21:58:58.364Z,29.23
2022-11-25T22:01:25.334Z,20.03
2022-11-25T22:03:52.072Z,19.77
2022-11-25T22:06:24.062Z,21.07
2022-11-25T22:08:51.056Z,31.23
2022-11-25T22:11:26.152Z,26.33
2022-11-25T22:13:53.538Z,28.47
2022-11-25T22:16:27.803Z,36.53
2022-11-25T22:18:54.941Z,21.97
2022-11-25T22:21:21.658Z,23.83
2022-11-25T22:23:48.435Z,25.17
2022-11-25T22:26:32.657Z,28.40
2022-11-25T22:29:00.628Z,32.03
2022-11-25T22:31:28.259Z,30.30
2022-11-25T22:33:55.099Z,29.57
2022-11-25T22:36:37.591Z,27.57
2022-11-25T22:39:22.298Z,27.40
2022-11-25T22:41:53.423Z,26.23
2022-11-25T22:44:38.097Z,30.17
2022-11-25T22:47:06.401Z,28.17
2022-11-25T22:49:48.757Z,28.03
2022-11-25T22:52:22.834Z,26.80
2022-11-25T22:54:49.836Z,31.87
2022-11-25T22:57:17.378Z,27.33
2022-11-25T22:59:44.657Z,33.20
2022-11-25T23:02:24.135Z,27.40
2022-11-25T23:04:53.467Z,32.37
2022-11-25T23:07:21.667Z,31.67
2022-11-25T23:09:48.703Z,27.40
2022-11-25T23:12:16.153Z,31.27
2022-11-25T23:14:43.601Z,26.67
2022-11-25T23:17:25.627Z,38.67
2022-11-25T23:19:53.204Z,33.03
2022-11-25T23:22:20.335Z,30.63
2022-11-25T23:24:48.429Z,34.63
2022-11-25T23:27:15.991Z,31.00
2022-11-25T23:29:42.704Z,34.97
2022-11-25T23:32:18.232Z,36.43
2022-11-25T23:34:45.459Z,39.23
2022-11-25T23:37:15.359Z,32.10
2022-11-25T23:39:42.385Z,30.90
2022-11-25T23:42:17.957Z,34.33
2022-11-25T23:44:44.688Z,27.83
2022-11-25T23:47:18.502Z,29.90
2022-11-25T23:49:48.240Z,34.23
2022-11-25T23:52:19.756Z,45.73
2022-11-25T23:54:47.892Z,29.93
2022-11-25T23:57:27.615Z,33.30
2022-11-25T23:59:54.367Z,29.97
